sensor_id;sensor_type;location;lat;lon;timestamp;temperature;humidity
4245;DHT22;2136;48.502;9.194;2023-05-16T00:01:08;13.00;99.90
4245;DHT22;2136;48.502;9.194;2023-05-16T00:03:37;13.00;99.90
4245;DHT22;2136;48.502;9.194;2023-05-16T00:06:05;13.00;99.90
4245;DHT22;2136;48.502;9.194;2023-05-16T00:08:33;13.00;99.90
4245;DHT22;2136;48.502;9.194;2023-05-16T00:11:00;13.00;99.90
4245;DHT22;2136;48.502;9.194;2023-05-16T00:13:28;12.90;99.90
4245;DHT22;2136;48.502;9.194;2023-05-16T00:15:55;12.90;99.90
4245;DHT22;2136;48.502;9.194;2023-05-16T00:18:23;12.80;99.90
4245;DHT22;2136;48.502;9.194;2023-05-16T00:20:51;12.80;99.90
4245;DHT22;2136;48.502;9.194;2023-05-16T00:23:21;12.80;99.90
4245;DHT22;2136;48.502;9.194;2023-05-16T00:25:48;12.80;99.90
4245;DHT22;2136;48.502;9.194;2023-05-16T00:28:16;12.80;99.90
4245;DHT22;2136;48.502;9.194;2023-05-16T00:30:43;12.70;99.90
4245;DHT22;2136;48.502;9.194;2023-05-16T00:33:10;12.70;99.90
4245;DHT22;2136;48.502;9.194;2023-05-16T00:35:36;12.60;99.90
4245;DHT22;2136;48.502;9.194;2023-05-16T00:38:03;12.60;99.90
4245;DHT22;2136;48.502;9.194;2023-05-16T00:40:32;12.60;99.90
4245;DHT22;2136;48.502;9.194;2023-05-16T00:42:58;12.60;99.90
4245;DHT22;2136;48.502;9.194;2023-05-16T00:45:25;12.70;99.90
4245;DHT22;2136;48.502;9.194;2023-05-16T00:47:52;12.60;99.90
4245;DHT22;2136;48.502;9.194;2023-05-16T00:50:20;12.60;99.90
4245;DHT22;2136;48.502;9.194;2023-05-16T00:52:47;12.70;99.90
4245;DHT22;2136;48.502;9.194;2023-05-16T00:55:14;12.70;99.90
4245;DHT22;2136;48.502;9.194;2023-05-16T00:57:43;12.70;99.90
4245;DHT22;2136;48.502;9.194;2023-05-16T01:00:10;12.70;99.90
4245;DHT22;2136;48.502;9.194;2023-05-16T01:02:39;12.80;99.90
4245;DHT22;2136;48.502;9.194;2023-05-16T01:05:07;12.70;99.90
4245;DHT22;2136;48.502;9.194;2023-05-16T01:07:34;12.80;99.90
4245;DHT22;2136;48.502;9.194;2023-05-16T01:10:02;12.80;99.90
4245;DHT22;2136;48.502;9.194;2023-05-16T01:12:36;12.80;99.90
4245;DHT22;2136;48.502;9.194;2023-05-16T01:15:08;12.70;99.90
4245;DHT22;2136;48.502;9.194;2023-05-16T01:17:46;12.70;99.90
4245;DHT22;2136;48.502;9.194;2023-05-16T01:20:26;12.70;99.90
4245;DHT22;2136;48.502;9.194;2023-05-16T01:23:04;12.70;99.90
4245;DHT22;2136;48.502;9.194;2023-05-16T01:25:43;12.70;99.90
4245;DHT22;2136;48.502;9.194;2023-05-16T01:28:15;12.70;99.90
4245;DHT22;2136;48.502;9.194;2023-05-16T01:30:42;12.70;99.90
4245;DHT22;2136;48.502;9.194;2023-05-16T01:33:09;12.70;99.90
4245;DHT22;2136;48.502;9.194;2023-05-16T01:35:42;12.70;99.90
4245;DHT22;2136;48.502;9.194;2023-05-16T01:38:15;12.70;99.90
4245;DHT22;2136;48.502;9.194;2023-05-16T01:40:47;12.70;99.90
4245;DHT22;2136;48.502;9.194;2023-05-16T01:43:20;12.70;99.90
4245;DHT22;2136;48.502;9.194;2023-05-16T01:45:52;12.70;99.90
4245;DHT22;2136;48.502;9.194;2023-05-16T01:48:22;12.80;99.90
4245;DHT22;2136;48.502;9.194;2023-05-16T01:50:54;12.80;99.90
4245;DHT22;2136;48.502;9.194;2023-05-16T01:53:28;12.80;99.90
4245;DHT22;2136;48.502;9.194;2023-05-16T01:55:57;12.80;99.90
4245;DHT22;2136;48.502;9.194;2023-05-16T01:58:29;12.80;99.90
4245;DHT22;2136;48.502;9.194;2023-05-16T02:01:00;12.90;99.90
4245;DHT22;2136;48.502;9.194;2023-05-16T02:03:27;12.90;99.90
4245;DHT22;2136;48.502;9.194;2023-05-16T02:05:54;12.90;99.90
4245;DHT22;2136;48.502;9.194;2023-05-16T02:08:21;12.90;99.90
4245;DHT22;2136;48.502;9.194;2023-05-16T02:10:48;12.90;99.90
4245;DHT22;2136;48.502;9.194;2023-05-16T02:13:16;13.00;99.90
4245;DHT22;2136;48.502;9.194;2023-05-16T02:15:44;12.90;99.90
4245;DHT22;2136;48.502;9.194;2023-05-16T02:18:11;13.00;99.90
4245;DHT22;2136;48.502;9.194;2023-05-16T02:20:38;13.00;99.90
4245;DHT22;2136;48.502;9.194;2023-05-16T02:23:05;13.00;99.90
4245;DHT22;2136;48.502;9.194;2023-05-16T02:25:32;13.00;99.90
4245;DHT22;2136;48.502;9.194;2023-05-16T02:27:58;13.00;99.90
4245;DHT22;2136;48.502;9.194;2023-05-16T02:30:25;13.20;99.90
4245;DHT22;2136;48.502;9.194;2023-05-16T02:32:53;13.10;99.90
4245;DHT22;2136;48.502;9.194;2023-05-16T02:35:20;13.10;99.90
4245;DHT22;2136;48.502;9.194;2023-05-16T02:37:47;13.10;99.90
4245;DHT22;2136;48.502;9.194;2023-05-16T02:40:14;13.10;99.90
4245;DHT22;2136;48.502;9.194;2023-05-16T02:42:41;13.10;99.90
4245;DHT22;2136;48.502;9.194;2023-05-16T02:45:09;13.10;99.90
4245;DHT22;2136;48.502;9.194;2023-05-16T02:47:36;13.10;99.90
4245;DHT22;2136;48.502;9.194;2023-05-16T02:50:05;13.20;99.90
4245;DHT22;2136;48.502;9.194;2023-05-16T02:52:32;13.20;99.90
4245;DHT22;2136;48.502;9.194;2023-05-16T02:54:59;13.20;99.90
4245;DHT22;2136;48.502;9.194;2023-05-16T02:57:26;13.20;99.90
4245;DHT22;2136;48.502;9.194;2023-05-16T02:59:53;13.20;99.90
4245;DHT22;2136;48.502;9.194;2023-05-16T03:02:20;13.20;99.90
4245;DHT22;2136;48.502;9.194;2023-05-16T03:04:47;13.20;99.90
4245;DHT22;2136;48.502;9.194;2023-05-16T03:07:15;13.20;99.90
4245;DHT22;2136;48.502;9.194;2023-05-16T03:09:42;13.20;99.90
4245;DHT22;2136;48.502;9.194;2023-05-16T03:12:09;13.20;99.90
4245;DHT22;2136;48.502;9.194;2023-05-16T03:14:36;13.30;99.90
4245;DHT22;2136;48.502;9.194;2023-05-16T03:17:03;13.30;99.90
4245;DHT22;2136;48.502;9.194;2023-05-16T03:19:30;13.30;99.90
4245;DHT22;2136;48.502;9.194;2023-05-16T03:21:57;13.30;99.90
4245;DHT22;2136;48.502;9.194;2023-05-16T03:24:25;13.30;99.90
4245;DHT22;2136;48.502;9.194;2023-05-16T03:26:52;13.30;99.90
4245;DHT22;2136;48.502;9.194;2023-05-16T03:29:19;13.30;99.90
4245;DHT22;2136;48.502;9.194;2023-05-16T03:31:45;13.30;99.90
4245;DHT22;2136;48.502;9.194;2023-05-16T03:34:12;13.30;99.90
4245;DHT22;2136;48.502;9.194;2023-05-16T03:36:40;13.30;99.90
4245;DHT22;2136;48.502;9.194;2023-05-16T03:39:07;13.30;99.90
4245;DHT22;2136;48.502;9.194;2023-05-16T03:41:35;13.30;99.90
4245;DHT22;2136;48.502;9.194;2023-05-16T03:44:02;13.30;99.90
4245;DHT22;2136;48.502;9.194;2023-05-16T03:46:29;13.30;99.90
4245;DHT22;2136;48.502;9.194;2023-05-16T03:48:56;13.30;99.90
4245;DHT22;2136;48.502;9.194;2023-05-16T03:51:23;13.30;99.90
4245;DHT22;2136;48.502;9.194;2023-05-16T03:53:50;13.30;99.90
4245;DHT22;2136;48.502;9.194;2023-05-16T03:56:17;13.30;99.90
4245;DHT22;2136;48.502;9.194;2023-05-16T03:58:45;13.30;99.90
4245;DHT22;2136;48.502;9.194;2023-05-16T04:01:12;13.30;99.90
4245;DHT22;2136;48.502;9.194;2023-05-16T04:03:39;13.30;99.90
4245;DHT22;2136;48.502;9.194;2023-05-16T04:06:06;13.40;99.90
4245;DHT22;2136;48.502;9.194;2023-05-16T04:08:33;13.40;99.90
4245;DHT22;2136;48.502;9.194;2023-05-16T04:11:00;13.40;99.90
4245;DHT22;2136;48.502;9.194;2023-05-16T04:13:27;13.40;99.90
4245;DHT22;2136;48.502;9.194;2023-05-16T04:15:55;13.40;99.90
4245;DHT22;2136;48.502;9.194;2023-05-16T04:18:22;13.40;99.90
4245;DHT22;2136;48.502;9.194;2023-05-16T04:20:49;13.40;99.90
4245;DHT22;2136;48.502;9.194;2023-05-16T04:23:16;13.40;99.90
4245;DHT22;2136;48.502;9.194;2023-05-16T04:25:42;13.50;99.90
4245;DHT22;2136;48.502;9.194;2023-05-16T04:28:09;13.50;99.90
4245;DHT22;2136;48.502;9.194;2023-05-16T04:30:37;13.50;99.90
4245;DHT22;2136;48.502;9.194;2023-05-16T04:33:05;13.50;99.90
4245;DHT22;2136;48.502;9.194;2023-05-16T04:35:32;13.50;99.90
4245;DHT22;2136;48.502;9.194;2023-05-16T04:37:59;13.50;99.90
4245;DHT22;2136;48.502;9.194;2023-05-16T04:40:26;13.60;99.90
4245;DHT22;2136;48.502;9.194;2023-05-16T04:42:53;13.50;99.90
4245;DHT22;2136;48.502;9.194;2023-05-16T04:45:20;13.60;99.90
4245;DHT22;2136;48.502;9.194;2023-05-16T04:47:47;13.60;99.90
4245;DHT22;2136;48.502;9.194;2023-05-16T04:50:17;13.60;99.90
4245;DHT22;2136;48.502;9.194;2023-05-16T04:52:44;13.60;99.90
4245;DHT22;2136;48.502;9.194;2023-05-16T04:55:11;13.60;99.90
4245;DHT22;2136;48.502;9.194;2023-05-16T04:57:38;13.60;99.90
4245;DHT22;2136;48.502;9.194;2023-05-16T05:00:06;13.60;99.90
4245;DHT22;2136;48.502;9.194;2023-05-16T05:02:35;13.60;99.90
4245;DHT22;2136;48.502;9.194;2023-05-16T05:05:01;13.70;99.90
4245;DHT22;2136;48.502;9.194;2023-05-16T05:07:30;13.70;99.90
4245;DHT22;2136;48.502;9.194;2023-05-16T05:09:56;13.70;99.90
4245;DHT22;2136;48.502;9.194;2023-05-16T05:12:23;13.70;99.90
4245;DHT22;2136;48.502;9.194;2023-05-16T05:14:51;13.70;99.90
4245;DHT22;2136;48.502;9.194;2023-05-16T05:17:18;13.80;99.90
4245;DHT22;2136;48.502;9.194;2023-05-16T05:19:45;13.80;99.90
4245;DHT22;2136;48.502;9.194;2023-05-16T05:22:12;13.80;99.90
4245;DHT22;2136;48.502;9.194;2023-05-16T05:24:40;13.80;99.90
4245;DHT22;2136;48.502;9.194;2023-05-16T05:27:07;13.80;99.90
4245;DHT22;2136;48.502;9.194;2023-05-16T05:29:34;13.90;99.90
4245;DHT22;2136;48.502;9.194;2023-05-16T05:32:01;13.80;99.90
4245;DHT22;2136;48.502;9.194;2023-05-16T05:34:28;13.80;99.90
4245;DHT22;2136;48.502;9.194;2023-05-16T05:36:55;13.80;99.90
4245;DHT22;2136;48.502;9.194;2023-05-16T05:39:23;13.80;99.90
4245;DHT22;2136;48.502;9.194;2023-05-16T05:41:51;13.80;99.90
4245;DHT22;2136;48.502;9.194;2023-05-16T05:44:18;13.80;99.90
4245;DHT22;2136;48.502;9.194;2023-05-16T05:46:45;13.80;99.90
4245;DHT22;2136;48.502;9.194;2023-05-16T05:49:12;13.80;99.90
4245;DHT22;2136;48.502;9.194;2023-05-16T05:51:39;13.80;99.90
4245;DHT22;2136;48.502;9.194;2023-05-16T05:54:06;13.80;99.90
4245;DHT22;2136;48.502;9.194;2023-05-16T05:56:33;13.80;99.90
4245;DHT22;2136;48.502;9.194;2023-05-16T05:59:02;13.90;99.90
4245;DHT22;2136;48.502;9.194;2023-05-16T06:01:29;13.90;99.90
4245;DHT22;2136;48.502;9.194;2023-05-16T06:03:55;13.90;99.90
4245;DHT22;2136;48.502;9.194;2023-05-16T06:06:22;13.90;99.90
4245;DHT22;2136;48.502;9.194;2023-05-16T06:08:49;13.90;99.90
4245;DHT22;2136;48.502;9.194;2023-05-16T06:11:17;13.90;99.90
4245;DHT22;2136;48.502;9.194;2023-05-16T06:13:44;13.90;99.90
4245;DHT22;2136;48.502;9.194;2023-05-16T06:16:12;14.00;99.90
4245;DHT22;2136;48.502;9.194;2023-05-16T06:18:39;14.00;99.90
4245;DHT22;2136;48.502;9.194;2023-05-16T06:21:06;14.00;99.90
4245;DHT22;2136;48.502;9.194;2023-05-16T06:23:33;14.00;99.90
4245;DHT22;2136;48.502;9.194;2023-05-16T06:26:00;14.00;99.90
4245;DHT22;2136;48.502;9.194;2023-05-16T06:28:27;14.00;99.90
4245;DHT22;2136;48.502;9.194;2023-05-16T06:30:54;14.00;99.90
4245;DHT22;2136;48.502;9.194;2023-05-16T06:33:22;14.00;99.90
4245;DHT22;2136;48.502;9.194;2023-05-16T06:35:49;14.00;99.90
4245;DHT22;2136;48.502;9.194;2023-05-16T06:38:17;13.90;99.90
4245;DHT22;2136;48.502;9.194;2023-05-16T06:40:44;14.00;99.90
4245;DHT22;2136;48.502;9.194;2023-05-16T06:43:11;14.00;99.90
4245;DHT22;2136;48.502;9.194;2023-05-16T06:45:38;14.00;99.90
4245;DHT22;2136;48.502;9.194;2023-05-16T06:48:06;14.00;99.90
4245;DHT22;2136;48.502;9.194;2023-05-16T06:50:34;14.00;99.90
4245;DHT22;2136;48.502;9.194;2023-05-16T06:53:01;14.10;99.90
4245;DHT22;2136;48.502;9.194;2023-05-16T06:55:29;14.10;99.90
4245;DHT22;2136;48.502;9.194;2023-05-16T06:57:56;14.10;99.90
4245;DHT22;2136;48.502;9.194;2023-05-16T07:00:23;14.20;99.90
4245;DHT22;2136;48.502;9.194;2023-05-16T07:02:50;14.10;99.90
4245;DHT22;2136;48.502;9.194;2023-05-16T07:05:17;14.20;99.90
4245;DHT22;2136;48.502;9.194;2023-05-16T07:07:46;14.30;99.90
4245;DHT22;2136;48.502;9.194;2023-05-16T07:10:14;14.30;99.90
4245;DHT22;2136;48.502;9.194;2023-05-16T07:12:41;14.30;99.90
4245;DHT22;2136;48.502;9.194;2023-05-16T07:15:09;14.40;99.90
4245;DHT22;2136;48.502;9.194;2023-05-16T07:17:36;14.40;99.90
4245;DHT22;2136;48.502;9.194;2023-05-16T07:20:03;14.40;99.90
4245;DHT22;2136;48.502;9.194;2023-05-16T07:22:30;14.30;99.90
4245;DHT22;2136;48.502;9.194;2023-05-16T07:24:58;14.30;99.90
4245;DHT22;2136;48.502;9.194;2023-05-16T07:27:25;14.30;99.90
4245;DHT22;2136;48.502;9.194;2023-05-16T07:29:52;14.30;99.90
4245;DHT22;2136;48.502;9.194;2023-05-16T07:32:19;14.30;99.90
4245;DHT22;2136;48.502;9.194;2023-05-16T07:34:46;14.30;99.90
4245;DHT22;2136;48.502;9.194;2023-05-16T07:37:13;14.30;99.90
4245;DHT22;2136;48.502;9.194;2023-05-16T07:39:40;14.30;99.90
4245;DHT22;2136;48.502;9.194;2023-05-16T07:42:09;14.30;99.90
4245;DHT22;2136;48.502;9.194;2023-05-16T07:44:36;14.30;99.90
4245;DHT22;2136;48.502;9.194;2023-05-16T07:47:03;14.30;99.90
4245;DHT22;2136;48.502;9.194;2023-05-16T07:49:31;14.30;99.90
4245;DHT22;2136;48.502;9.194;2023-05-16T07:51:57;14.30;99.90
4245;DHT22;2136;48.502;9.194;2023-05-16T07:54:24;14.30;99.90
4245;DHT22;2136;48.502;9.194;2023-05-16T07:56:51;14.30;99.90
4245;DHT22;2136;48.502;9.194;2023-05-16T07:59:19;14.20;99.90
4245;DHT22;2136;48.502;9.194;2023-05-16T08:01:46;14.20;99.90
4245;DHT22;2136;48.502;9.194;2023-05-16T08:04:13;14.20;99.90
4245;DHT22;2136;48.502;9.194;2023-05-16T08:06:40;14.20;99.90
4245;DHT22;2136;48.502;9.194;2023-05-16T08:09:07;14.20;99.90
4245;DHT22;2136;48.502;9.194;2023-05-16T08:11:34;14.20;99.90
4245;DHT22;2136;48.502;9.194;2023-05-16T08:14:02;14.20;99.90
4245;DHT22;2136;48.502;9.194;2023-05-16T08:16:30;14.10;99.90
4245;DHT22;2136;48.502;9.194;2023-05-16T08:18:57;14.20;99.90
4245;DHT22;2136;48.502;9.194;2023-05-16T08:21:24;14.20;99.90
4245;DHT22;2136;48.502;9.194;2023-05-16T08:23:51;14.20;99.90
4245;DHT22;2136;48.502;9.194;2023-05-16T08:26:18;14.20;99.90
4245;DHT22;2136;48.502;9.194;2023-05-16T08:28:46;14.20;99.90
4245;DHT22;2136;48.502;9.194;2023-05-16T08:31:14;14.20;99.90
4245;DHT22;2136;48.502;9.194;2023-05-16T08:33:42;14.20;99.90
4245;DHT22;2136;48.502;9.194;2023-05-16T08:36:09;14.10;99.90
4245;DHT22;2136;48.502;9.194;2023-05-16T08:38:36;14.10;99.90
4245;DHT22;2136;48.502;9.194;2023-05-16T08:41:03;14.10;99.90
4245;DHT22;2136;48.502;9.194;2023-05-16T08:43:30;14.10;99.90
4245;DHT22;2136;48.502;9.194;2023-05-16T08:45:59;14.10;99.90
4245;DHT22;2136;48.502;9.194;2023-05-16T08:48:27;14.10;99.90
4245;DHT22;2136;48.502;9.194;2023-05-16T08:50:56;14.10;99.90
4245;DHT22;2136;48.502;9.194;2023-05-16T08:53:31;14.10;99.90
4245;DHT22;2136;48.502;9.194;2023-05-16T08:56:03;14.10;99.90
4245;DHT22;2136;48.502;9.194;2023-05-16T08:58:31;14.10;99.90
4245;DHT22;2136;48.502;9.194;2023-05-16T09:00:58;14.10;99.90
4245;DHT22;2136;48.502;9.194;2023-05-16T09:03:27;14.10;99.90
4245;DHT22;2136;48.502;9.194;2023-05-16T09:05:55;14.00;99.90
4245;DHT22;2136;48.502;9.194;2023-05-16T09:08:22;14.00;99.90
4245;DHT22;2136;48.502;9.194;2023-05-16T09:10:49;14.10;99.90
4245;DHT22;2136;48.502;9.194;2023-05-16T09:13:15;14.00;99.90
4245;DHT22;2136;48.502;9.194;2023-05-16T09:15:42;14.00;99.90
4245;DHT22;2136;48.502;9.194;2023-05-16T09:18:11;14.00;99.90
4245;DHT22;2136;48.502;9.194;2023-05-16T09:20:42;13.90;99.90
4245;DHT22;2136;48.502;9.194;2023-05-16T09:23:12;13.90;99.90
4245;DHT22;2136;48.502;9.194;2023-05-16T09:25:39;14.00;99.90
4245;DHT22;2136;48.502;9.194;2023-05-16T09:28:09;14.00;99.90
4245;DHT22;2136;48.502;9.194;2023-05-16T09:30:37;14.00;99.90
4245;DHT22;2136;48.502;9.194;2023-05-16T09:33:05;14.10;99.90
4245;DHT22;2136;48.502;9.194;2023-05-16T09:35:32;14.10;99.90
4245;DHT22;2136;48.502;9.194;2023-05-16T09:37:59;13.90;99.90
4245;DHT22;2136;48.502;9.194;2023-05-16T09:40:27;13.90;99.90
4245;DHT22;2136;48.502;9.194;2023-05-16T09:43:01;13.90;99.90
4245;DHT22;2136;48.502;9.194;2023-05-16T09:45:30;13.90;99.90
4245;DHT22;2136;48.502;9.194;2023-05-16T09:48:03;13.90;99.90
4245;DHT22;2136;48.502;9.194;2023-05-16T09:50:32;13.90;99.90
4245;DHT22;2136;48.502;9.194;2023-05-16T09:53:00;13.80;99.90
4245;DHT22;2136;48.502;9.194;2023-05-16T09:55:29;13.80;99.90
4245;DHT22;2136;48.502;9.194;2023-05-16T09:57:56;13.80;99.90
4245;DHT22;2136;48.502;9.194;2023-05-16T10:00:28;13.80;99.90
4245;DHT22;2136;48.502;9.194;2023-05-16T10:02:56;13.80;99.90
4245;DHT22;2136;48.502;9.194;2023-05-16T10:05:24;13.80;99.90
4245;DHT22;2136;48.502;9.194;2023-05-16T10:07:53;13.90;99.90
4245;DHT22;2136;48.502;9.194;2023-05-16T10:10:21;13.90;99.90
4245;DHT22;2136;48.502;9.194;2023-05-16T10:12:50;13.80;99.90
4245;DHT22;2136;48.502;9.194;2023-05-16T10:15:18;13.80;99.90
4245;DHT22;2136;48.502;9.194;2023-05-16T10:17:50;13.80;99.90
4245;DHT22;2136;48.502;9.194;2023-05-16T10:20:17;13.80;99.90
4245;DHT22;2136;48.502;9.194;2023-05-16T10:22:46;13.80;99.90
4245;DHT22;2136;48.502;9.194;2023-05-16T10:25:19;13.80;99.90
4245;DHT22;2136;48.502;9.194;2023-05-16T10:27:52;13.80;99.90
4245;DHT22;2136;48.502;9.194;2023-05-16T10:30:19;13.80;99.90
4245;DHT22;2136;48.502;9.194;2023-05-16T10:32:46;13.70;99.90
4245;DHT22;2136;48.502;9.194;2023-05-16T10:35:16;13.80;99.90
4245;DHT22;2136;48.502;9.194;2023-05-16T10:37:43;13.70;99.90
4245;DHT22;2136;48.502;9.194;2023-05-16T10:40:11;13.80;99.90
4245;DHT22;2136;48.502;9.194;2023-05-16T10:42:38;13.80;99.90
4245;DHT22;2136;48.502;9.194;2023-05-16T10:45:15;13.80;99.90
4245;DHT22;2136;48.502;9.194;2023-05-16T10:47:50;13.80;99.90
4245;DHT22;2136;48.502;9.194;2023-05-16T10:50:30;13.80;99.90
4245;DHT22;2136;48.502;9.194;2023-05-16T10:56:06;13.80;99.90
4245;DHT22;2136;48.502;9.194;2023-05-16T10:58:45;13.80;99.90
4245;DHT22;2136;48.502;9.194;2023-05-16T11:01:18;13.80;99.90
4245;DHT22;2136;48.502;9.194;2023-05-16T11:04:07;13.90;99.90
4245;DHT22;2136;48.502;9.194;2023-05-16T11:06:42;13.90;99.90
4245;DHT22;2136;48.502;9.194;2023-05-16T11:09:22;13.90;99.90
4245;DHT22;2136;48.502;9.194;2023-05-16T11:11:58;13.90;99.90
4245;DHT22;2136;48.502;9.194;2023-05-16T11:14:26;13.80;99.90
4245;DHT22;2136;48.502;9.194;2023-05-16T11:17:02;13.80;99.90
4245;DHT22;2136;48.502;9.194;2023-05-16T11:19:31;13.80;99.90
4245;DHT22;2136;48.502;9.194;2023-05-16T11:22:23;13.80;99.90
4245;DHT22;2136;48.502;9.194;2023-05-16T11:24:53;13.80;99.90
4245;DHT22;2136;48.502;9.194;2023-05-16T11:27:22;13.80;99.90
4245;DHT22;2136;48.502;9.194;2023-05-16T11:29:50;13.80;99.90
4245;DHT22;2136;48.502;9.194;2023-05-16T11:32:20;13.80;99.90
4245;DHT22;2136;48.502;9.194;2023-05-16T11:34:48;13.80;99.90
4245;DHT22;2136;48.502;9.194;2023-05-16T11:37:15;13.80;99.90
4245;DHT22;2136;48.502;9.194;2023-05-16T11:39:42;13.80;99.90
4245;DHT22;2136;48.502;9.194;2023-05-16T11:42:09;13.90;99.90
4245;DHT22;2136;48.502;9.194;2023-05-16T11:44:37;13.90;99.90
4245;DHT22;2136;48.502;9.194;2023-05-16T11:47:04;13.90;99.90
4245;DHT22;2136;48.502;9.194;2023-05-16T11:49:33;14.00;99.90
4245;DHT22;2136;48.502;9.194;2023-05-16T11:52:01;14.00;99.90
4245;DHT22;2136;48.502;9.194;2023-05-16T11:54:28;14.10;99.90
4245;DHT22;2136;48.502;9.194;2023-05-16T11:56:55;14.10;99.90
4245;DHT22;2136;48.502;9.194;2023-05-16T11:59:22;14.20;99.90
4245;DHT22;2136;48.502;9.194;2023-05-16T12:01:49;14.20;99.90
4245;DHT22;2136;48.502;9.194;2023-05-16T12:04:16;14.30;99.90
4245;DHT22;2136;48.502;9.194;2023-05-16T12:06:57;14.30;99.90
4245;DHT22;2136;48.502;9.194;2023-05-16T12:09:25;14.30;99.90
4245;DHT22;2136;48.502;9.194;2023-05-16T12:11:52;14.30;99.90
4245;DHT22;2136;48.502;9.194;2023-05-16T12:14:19;14.30;99.90
4245;DHT22;2136;48.502;9.194;2023-05-16T12:16:46;14.30;99.90
4245;DHT22;2136;48.502;9.194;2023-05-16T12:19:14;14.30;99.90
4245;DHT22;2136;48.502;9.194;2023-05-16T12:21:41;14.30;99.90
4245;DHT22;2136;48.502;9.194;2023-05-16T12:24:11;14.30;99.90
4245;DHT22;2136;48.502;9.194;2023-05-16T12:26:39;14.20;99.90
4245;DHT22;2136;48.502;9.194;2023-05-16T12:29:08;14.20;99.90
4245;DHT22;2136;48.502;9.194;2023-05-16T12:31:37;14.20;99.90
4245;DHT22;2136;48.502;9.194;2023-05-16T12:34:14;14.10;99.90
4245;DHT22;2136;48.502;9.194;2023-05-16T12:36:42;14.10;99.90
4245;DHT22;2136;48.502;9.194;2023-05-16T12:39:11;14.10;99.90
4245;DHT22;2136;48.502;9.194;2023-05-16T12:41:40;14.10;99.90
4245;DHT22;2136;48.502;9.194;2023-05-16T12:44:10;14.10;99.90
4245;DHT22;2136;48.502;9.194;2023-05-16T12:46:43;14.10;99.90
4245;DHT22;2136;48.502;9.194;2023-05-16T12:49:11;14.10;99.90
4245;DHT22;2136;48.502;9.194;2023-05-16T12:51:38;14.00;99.90
4245;DHT22;2136;48.502;9.194;2023-05-16T12:54:10;14.00;99.90
4245;DHT22;2136;48.502;9.194;2023-05-16T12:56:38;14.10;99.90
4245;DHT22;2136;48.502;9.194;2023-05-16T12:59:05;14.10;99.90
4245;DHT22;2136;48.502;9.194;2023-05-16T13:01:32;14.00;99.90
4245;DHT22;2136;48.502;9.194;2023-05-16T13:04:00;14.10;99.90
4245;DHT22;2136;48.502;9.194;2023-05-16T13:06:27;14.10;99.90
4245;DHT22;2136;48.502;9.194;2023-05-16T13:08:54;14.10;99.90
4245;DHT22;2136;48.502;9.194;2023-05-16T13:11:23;14.10;99.90
4245;DHT22;2136;48.502;9.194;2023-05-16T13:13:50;14.10;99.90
4245;DHT22;2136;48.502;9.194;2023-05-16T13:16:17;14.10;99.90
4245;DHT22;2136;48.502;9.194;2023-05-16T13:18:44;14.10;99.90
4245;DHT22;2136;48.502;9.194;2023-05-16T13:21:11;14.10;99.90
4245;DHT22;2136;48.502;9.194;2023-05-16T13:23:38;14.10;99.90
4245;DHT22;2136;48.502;9.194;2023-05-16T13:26:05;14.10;99.90
4245;DHT22;2136;48.502;9.194;2023-05-16T13:28:33;14.00;99.90
4245;DHT22;2136;48.502;9.194;2023-05-16T13:31:00;14.10;99.90
4245;DHT22;2136;48.502;9.194;2023-05-16T13:33:28;14.10;99.90
4245;DHT22;2136;48.502;9.194;2023-05-16T13:35:55;14.20;99.90
4245;DHT22;2136;48.502;9.194;2023-05-16T13:38:22;14.10;99.90
4245;DHT22;2136;48.502;9.194;2023-05-16T13:40:49;14.10;99.90
4245;DHT22;2136;48.502;9.194;2023-05-16T13:43:16;14.10;99.90
4245;DHT22;2136;48.502;9.194;2023-05-16T13:45:45;14.10;99.90
4245;DHT22;2136;48.502;9.194;2023-05-16T13:48:12;14.10;99.90
4245;DHT22;2136;48.502;9.194;2023-05-16T13:50:38;14.10;99.90
4245;DHT22;2136;48.502;9.194;2023-05-16T13:53:05;14.20;99.90
4245;DHT22;2136;48.502;9.194;2023-05-16T13:55:33;14.20;99.90
4245;DHT22;2136;48.502;9.194;2023-05-16T13:58:00;14.30;99.90
4245;DHT22;2136;48.502;9.194;2023-05-16T14:00:27;14.30;99.90
4245;DHT22;2136;48.502;9.194;2023-05-16T14:02:55;14.30;99.90
4245;DHT22;2136;48.502;9.194;2023-05-16T14:05:22;14.30;99.90
4245;DHT22;2136;48.502;9.194;2023-05-16T14:07:49;14.20;99.90
4245;DHT22;2136;48.502;9.194;2023-05-16T14:10:16;14.20;99.90
4245;DHT22;2136;48.502;9.194;2023-05-16T14:12:43;14.10;99.90
4245;DHT22;2136;48.502;9.194;2023-05-16T14:15:10;14.10;99.90
4245;DHT22;2136;48.502;9.194;2023-05-16T14:17:37;14.10;99.90
4245;DHT22;2136;48.502;9.194;2023-05-16T14:20:06;14.00;99.90
4245;DHT22;2136;48.502;9.194;2023-05-16T14:22:35;14.00;99.90
4245;DHT22;2136;48.502;9.194;2023-05-16T14:25:03;14.10;99.90
4245;DHT22;2136;48.502;9.194;2023-05-16T14:27:30;14.00;99.90
4245;DHT22;2136;48.502;9.194;2023-05-16T14:29:57;14.10;99.90
4245;DHT22;2136;48.502;9.194;2023-05-16T14:32:24;14.10;99.90
4245;DHT22;2136;48.502;9.194;2023-05-16T14:34:51;14.20;99.90
4245;DHT22;2136;48.502;9.194;2023-05-16T14:37:19;14.20;99.90
4245;DHT22;2136;48.502;9.194;2023-05-16T14:39:46;14.20;99.90
4245;DHT22;2136;48.502;9.194;2023-05-16T14:42:15;14.30;99.60
4245;DHT22;2136;48.502;9.194;2023-05-16T14:44:42;14.30;99.20
4245;DHT22;2136;48.502;9.194;2023-05-16T14:47:09;14.30;98.40
4245;DHT22;2136;48.502;9.194;2023-05-16T14:49:36;14.30;97.90
4245;DHT22;2136;48.502;9.194;2023-05-16T14:52:03;14.30;97.60
4245;DHT22;2136;48.502;9.194;2023-05-16T14:54:32;14.30;97.00
4245;DHT22;2136;48.502;9.194;2023-05-16T14:56:59;14.30;96.20
4245;DHT22;2136;48.502;9.194;2023-05-16T14:59:26;14.20;95.70
4245;DHT22;2136;48.502;9.194;2023-05-16T15:01:53;14.20;95.40
4245;DHT22;2136;48.502;9.194;2023-05-16T15:04:20;14.10;95.50
4245;DHT22;2136;48.502;9.194;2023-05-16T15:06:47;14.10;96.00
4245;DHT22;2136;48.502;9.194;2023-05-16T15:09:13;14.00;96.10
4245;DHT22;2136;48.502;9.194;2023-05-16T15:11:42;14.00;95.80
4245;DHT22;2136;48.502;9.194;2023-05-16T15:14:09;14.00;95.80
4245;DHT22;2136;48.502;9.194;2023-05-16T15:16:36;14.00;95.80
4245;DHT22;2136;48.502;9.194;2023-05-16T15:19:03;14.00;96.00
4245;DHT22;2136;48.502;9.194;2023-05-16T15:21:30;14.00;96.00
4245;DHT22;2136;48.502;9.194;2023-05-16T15:23:57;14.00;96.20
4245;DHT22;2136;48.502;9.194;2023-05-16T15:26:24;14.00;96.80
4245;DHT22;2136;48.502;9.194;2023-05-16T15:28:52;14.00;96.80
4245;DHT22;2136;48.502;9.194;2023-05-16T15:31:20;14.00;96.70
4245;DHT22;2136;48.502;9.194;2023-05-16T15:33:47;14.00;96.50
4245;DHT22;2136;48.502;9.194;2023-05-16T15:36:14;14.00;96.50
4245;DHT22;2136;48.502;9.194;2023-05-16T15:38:40;14.00;96.60
4245;DHT22;2136;48.502;9.194;2023-05-16T15:41:10;14.00;96.40
4245;DHT22;2136;48.502;9.194;2023-05-16T15:43:37;14.00;96.60
4245;DHT22;2136;48.502;9.194;2023-05-16T15:46:07;14.00;96.10
4245;DHT22;2136;48.502;9.194;2023-05-16T15:48:34;14.00;96.00
4245;DHT22;2136;48.502;9.194;2023-05-16T15:51:01;14.00;96.60
4245;DHT22;2136;48.502;9.194;2023-05-16T15:53:28;14.10;96.20
4245;DHT22;2136;48.502;9.194;2023-05-16T15:55:55;14.10;95.70
4245;DHT22;2136;48.502;9.194;2023-05-16T15:58:22;14.10;95.30
4245;DHT22;2136;48.502;9.194;2023-05-16T16:00:49;14.20;95.00
4245;DHT22;2136;48.502;9.194;2023-05-16T16:03:17;14.10;94.60
4245;DHT22;2136;48.502;9.194;2023-05-16T16:05:44;14.10;94.50
4245;DHT22;2136;48.502;9.194;2023-05-16T16:08:12;14.10;93.90
4245;DHT22;2136;48.502;9.194;2023-05-16T16:10:39;14.00;93.90